Time;durP1;ratioP1;P1;durP2;ratioP2;P2;SDS_P1;SDS_P2;PMS_P1;PMS_P2;Temp;Humidity;BMP_temperature;BMP_pressure;BME280_temperature;BME280_humidity;BME280_pressure;Samples;Min_cycle;Max_cycle;Signal;HPM_P1;HPM_P2
2021/04/11 00:02:20;;;;;;;1.40;1.30;;;22.20;48.90;;;;;;5090807;28;20219;-83
2021/04/11 00:04:46;;;;;;;1.60;1.10;;;22.20;48.90;;;;;;5107885;28;20201;-82
2021/04/11 00:10:37;;;;;;;1.93;1.47;;;22.20;48.90;;;;;;5108809;28;20160;-83
2021/04/11 00:13:05;;;;;;;1.60;1.27;;;22.20;48.90;;;;;;5090952;28;20408;-82
2021/04/11 00:15:31;;;;;;;1.80;1.30;;;22.20;49.00;;;;;;5108106;28;20431;-83
2021/04/11 00:21:19;;;;;;;1.37;1.27;;;22.20;48.90;;;;;;5107351;28;20384;-83
2021/04/11 00:23:45;;;;;;;2.37;1.37;;;22.20;49.10;;;;;;5090417;28;20428;-83
2021/04/11 00:26:11;;;;;;;1.30;1.20;;;22.10;49.00;;;;;;5090205;28;20224;-81
2021/04/11 00:28:37;;;;;;;3.80;1.40;;;22.10;49.00;;;;;;5107995;28;20459;-83
2021/04/11 00:31:02;;;;;;;1.67;1.30;;;22.10;49.10;;;;;;5089978;28;20241;-83
2021/04/11 00:33:31;;;;;;;1.47;1.20;;;22.10;49.00;;;;;;5090597;28;20169;-82
2021/04/11 00:36:01;;;;;;;1.43;1.27;;;22.10;49.00;;;;;;5107687;28;20166;-83
2021/04/11 00:38:28;;;;;;;1.40;1.20;;;22.10;49.00;;;;;;5089785;28;20415;-82
2021/04/11 00:40:59;;;;;;;1.67;1.40;;;22.10;49.00;;;;;;5107870;28;20404;-81
2021/04/11 00:43:25;;;;;;;1.67;1.10;;;22.00;48.90;;;;;;5089947;28;20834;-82
2021/04/11 00:46:11;;;;;;;2.07;1.40;;;22.10;49.00;;;;;;5089326;28;20455;-82
2021/04/11 00:48:37;;;;;;;2.57;1.30;;;22.10;49.00;;;;;;5107892;28;20411;-82
2021/04/11 00:51:06;;;;;;;1.73;1.53;;;22.10;49.20;;;;;;5089417;28;20431;-82
2021/04/11 00:53:33;;;;;;;1.93;1.30;;;22.10;49.10;;;;;;5089932;28;20874;-82
2021/04/11 00:56:00;;;;;;;2.00;1.60;;;22.10;49.20;;;;;;5089537;28;20412;-82
2021/04/11 00:58:27;;;;;;;1.70;1.53;;;22.10;49.10;;;;;;5107480;28;20414;-82
2021/04/11 01:00:53;;;;;;;1.73;1.43;;;22.10;49.40;;;;;;5107795;28;20432;-82
2021/04/11 01:03:23;;;;;;;1.57;1.20;;;22.10;49.10;;;;;;5089164;28;20436;-82
2021/04/11 01:05:49;;;;;;;1.50;1.20;;;22.10;49.20;;;;;;5106882;28;20470;-82
2021/04/11 01:08:22;;;;;;;1.50;1.30;;;22.10;49.10;;;;;;5107127;28;20881;-82
2021/04/11 01:11:07;;;;;;;1.37;1.20;;;22.10;49.10;;;;;;5107032;28;20150;-82
2021/04/11 01:13:35;;;;;;;1.60;1.20;;;22.10;49.10;;;;;;5089299;28;20407;-82
2021/04/11 01:16:02;;;;;;;1.40;1.30;;;22.00;49.70;;;;;;5107191;28;20809;-82
2021/04/11 01:18:28;;;;;;;1.53;1.43;;;22.00;49.20;;;;;;5088912;28;20411;-83
2021/04/11 01:20:55;;;;;;;2.23;1.20;;;22.00;49.20;;;;;;5089798;28;20423;-83
2021/04/11 01:23:45;;;;;;;2.10;1.20;;;22.00;49.10;;;;;;5079282;28;20431;-83
2021/04/11 01:26:13;;;;;;;1.93;1.50;;;22.00;49.10;;;;;;5087487;28;20448;-83
2021/04/11 01:28:42;;;;;;;2.50;1.40;;;22.00;49.30;;;;;;5066239;28;20419;-82
2021/04/11 01:31:08;;;;;;;1.40;1.00;;;22.00;49.20;;;;;;5081937;28;20413;-83
2021/04/11 01:33:40;;;;;;;1.87;1.30;;;22.00;49.20;;;;;;5072473;28;20798;-83
2021/04/11 01:36:09;;;;;;;2.07;1.50;;;22.00;49.20;;;;;;5084389;28;20420;-83
2021/04/11 01:38:38;;;;;;;1.20;1.07;;;22.00;49.10;;;;;;5082881;28;20396;-83
2021/04/11 01:41:27;;;;;;;1.50;1.27;;;22.00;49.20;;;;;;5087674;28;20500;-83
2021/04/11 01:43:55;;;;;;;1.73;1.23;;;22.00;49.10;;;;;;5075291;28;20408;-83
2021/04/11 01:46:23;;;;;;;1.20;1.00;;;22.00;49.20;;;;;;5102278;28;20455;-83
2021/04/11 01:48:50;;;;;;;1.70;1.37;;;22.00;49.20;;;;;;5094931;28;20454;-83
2021/04/11 01:51:18;;;;;;;1.20;1.07;;;21.90;49.10;;;;;;5093517;28;20400;-83
2021/04/11 01:53:46;;;;;;;1.17;0.97;;;22.00;49.20;;;;;;5093167;28;20426;-83
2021/04/11 01:56:12;;;;;;;1.20;1.10;;;22.00;49.30;;;;;;5111577;28;20936;-83
2021/04/11 01:58:40;;;;;;;2.17;1.33;;;22.00;49.20;;;;;;5092226;28;20427;-83
2021/04/11 02:01:19;;;;;;;2.43;1.43;;;21.90;49.20;;;;;;5073479;28;20498;-82
2021/04/11 02:03:45;;;;;;;1.63;1.20;;;22.00;49.20;;;;;;5091044;28;20483;-83
2021/04/11 02:06:14;;;;;;;1.47;1.13;;;21.90;49.20;;;;;;5073426;28;20452;-83
2021/04/11 02:08:46;;;;;;;1.67;1.00;;;21.90;49.30;;;;;;5090248;28;20436;-83
2021/04/11 02:11:12;;;;;;;1.50;1.10;;;21.90;49.30;;;;;;5090289;28;20395;-83
2021/04/11 02:13:40;;;;;;;2.10;1.40;;;21.90;49.30;;;;;;5090011;28;20461;-83
2021/04/11 02:16:07;;;;;;;1.50;1.20;;;21.90;49.20;;;;;;5073941;28;20516;-83
2021/04/11 02:18:35;;;;;;;1.53;1.10;;;21.90;49.30;;;;;;5072701;28;20898;-83
2021/04/11 02:21:04;;;;;;;1.60;1.13;;;21.90;49.20;;;;;;5090917;28;20425;-82
2021/04/11 02:23:31;;;;;;;1.30;0.90;;;21.90;49.20;;;;;;5091139;28;20401;-82
2021/04/11 02:25:57;;;;;;;1.80;1.20;;;21.90;49.40;;;;;;5105959;28;20463;-83
2021/04/11 02:28:26;;;;;;;1.80;1.63;;;21.90;49.30;;;;;;5072800;28;20417;-83
2021/04/11 02:31:17;;;;;;;1.30;1.10;;;21.90;49.20;;;;;;5073103;28;20432;-82
2021/04/11 02:34:02;;;;;;;1.43;1.03;;;21.90;49.20;;;;;;5073030;28;20459;-83
2021/04/11 02:36:41;;;;;;;1.03;0.93;;;21.90;49.20;;;;;;5090361;28;20396;-83
2021/04/11 02:39:11;;;;;;;1.63;1.33;;;21.90;49.20;;;;;;5106350;28;20415;-83
2021/04/11 02:41:39;;;;;;;1.50;1.20;;;21.90;49.40;;;;;;5090142;28;20412;-83
2021/04/11 02:44:05;;;;;;;1.33;1.23;;;21.90;49.30;;;;;;5070898;28;20451;-83
2021/04/11 02:46:34;;;;;;;1.50;1.20;;;21.90;49.40;;;;;;5089543;28;20452;-83
2021/04/11 02:49:00;;;;;;;1.67;1.23;;;21.90;49.30;;;;;;5089994;28;20405;-83
2021/04/11 02:51:28;;;;;;;1.90;1.23;;;21.90;49.40;;;;;;5071718;28;20443;-83
2021/04/11 02:53:58;;;;;;;1.20;1.10;;;21.90;49.30;;;;;;5107109;28;20413;-83
2021/04/11 02:56:25;;;;;;;1.20;1.00;;;21.90;49.30;;;;;;5072717;28;20420;-83
2021/04/11 02:58:52;;;;;;;1.30;1.00;;;21.90;49.30;;;;;;5106564;28;20452;-83
2021/04/11 03:01:27;;;;;;;1.03;0.90;;;21.80;49.20;;;;;;5090004;28;20459;-83
2021/04/11 03:03:55;;;;;;;1.57;1.20;;;21.80;49.30;;;;;;5072318;28;20420;-83
2021/04/11 03:06:26;;;;;;;1.20;0.90;;;21.80;49.20;;;;;;5105680;28;20515;-82
2021/04/11 03:08:55;;;;;;;1.27;1.13;;;21.90;49.30;;;;;;5072026;28;20417;-82
2021/04/11 03:11:37;;;;;;;1.40;1.10;;;21.80;49.30;;;;;;5089251;28;20467;-83
2021/04/11 03:14:05;;;;;;;2.97;1.50;;;22.10;49.50;;;;;;5072075;28;20412;-83
2021/04/11 03:16:35;;;;;;;1.40;0.90;;;21.80;49.40;;;;;;5072606;28;20874;-83
2021/04/11 03:19:06;;;;;;;1.30;1.20;;;21.80;49.30;;;;;;5105303;28;20417;-83
2021/04/11 03:21:34;;;;;;;1.47;1.17;;;21.80;49.40;;;;;;5089372;28;20405;-83
2021/04/11 03:24:02;;;;;;;1.30;1.20;;;21.80;49.40;;;;;;5071397;28;20454;-82
2021/04/11 03:26:36;;;;;;;1.97;1.20;;;21.90;49.40;;;;;;5088344;28;20928;-82
2021/04/11 03:29:42;;;;;;;1.23;1.10;;;21.80;49.20;;;;;;5071691;28;20832;-83
2021/04/11 03:32:17;;;;;;;2.03;1.20;;;21.90;49.30;;;;;;5070528;28;20424;-83
2021/04/11 03:34:45;;;;;;;1.40;1.10;;;21.80;49.30;;;;;;5070082;28;20408;-82
2021/04/11 03:37:13;;;;;;;1.33;1.07;;;21.80;49.40;;;;;;5079529;28;20408;-82
2021/04/11 03:39:39;;;;;;;1.73;1.30;;;21.80;49.30;;;;;;5073701;28;20428;-82
2021/04/11 03:42:13;;;;;;;1.40;1.20;;;21.80;49.40;;;;;;5076221;28;20454;-82
2021/04/11 03:44:39;;;;;;;1.50;1.17;;;21.80;49.30;;;;;;5078277;28;20897;-82
2021/04/11 03:47:13;;;;;;;1.30;1.20;;;21.80;49.40;;;;;;5071027;28;20490;-82
2021/04/11 03:50:03;;;;;;;1.20;1.00;;;21.80;49.40;;;;;;5089011;28;20392;-82
2021/04/11 03:52:37;;;;;;;1.50;1.40;;;21.80;49.30;;;;;;5079314;28;20397;-82
2021/04/11 03:55:07;;;;;;;1.70;1.20;;;21.80;49.40;;;;;;5088363;28;20389;-82
2021/04/11 03:57:48;;;;;;;1.17;1.07;;;21.80;49.40;;;;;;5070684;28;20459;-82
2021/04/11 04:00:16;;;;;;;1.20;1.00;;;21.80;49.40;;;;;;5070409;28;20420;-82
2021/04/11 04:02:45;;;;;;;1.63;1.30;;;21.70;49.40;;;;;;5070791;28;20443;-82
2021/04/11 04:05:16;;;;;;;1.40;1.00;;;21.70;49.40;;;;;;5070458;28;20467;-82
2021/04/11 04:07:54;;;;;;;2.60;2.40;;;21.70;49.40;;;;;;5070283;28;20409;-82
2021/04/11 04:10:31;;;;;;;1.23;0.90;;;21.70;49.40;;;;;;5070195;28;20439;-82
2021/04/11 04:13:02;;;;;;;1.60;1.07;;;21.80;49.50;;;;;;5070855;28;20443;-82
2021/04/11 04:16:10;;;;;;;1.67;1.20;;;21.80;49.80;;;;;;5070995;28;20413;-82
2021/04/11 04:19:02;;;;;;;3.10;1.50;;;21.70;49.40;;;;;;5070515;28;20493;-82
2021/04/11 04:21:56;;;;;;;1.20;1.00;;;21.70;49.40;;;;;;5088014;28;20416;-82
2021/04/11 04:24:46;;;;;;;1.33;1.10;;;21.70;49.40;;;;;;5069829;28;20417;-82
2021/04/11 04:27:30;;;;;;;1.20;1.10;;;21.70;49.50;;;;;;5087229;28;20495;-82
2021/04/11 04:30:22;;;;;;;1.27;1.10;;;21.70;49.50;;;;;;5070375;28;20421;-82
2021/04/11 04:33:15;;;;;;;1.50;1.00;;;21.70;49.40;;;;;;5070036;28;20397;-82
2021/04/11 04:36:02;;;;;;;1.20;1.00;;;21.60;49.40;;;;;;5069931;28;20409;-82
2021/04/11 04:38:47;;;;;;;1.27;0.93;;;21.70;49.50;;;;;;5069112;28;20418;-83
2021/04/11 04:41:33;;;;;;;1.97;1.40;;;21.70;49.50;;;;;;5088277;28;20468;-82
2021/04/11 04:43:59;;;;;;;2.13;1.23;;;21.70;49.50;;;;;;5070585;28;20436;-82
2021/04/11 04:46:55;;;;;;;1.37;1.20;;;21.70;49.70;;;;;;5103942;28;20456;-82
2021/04/11 04:49:48;;;;;;;1.33;1.13;;;21.80;49.50;;;;;;5088563;28;20182;-82
2021/04/11 04:52:28;;;;;;;1.30;1.20;;;21.70;49.40;;;;;;5088027;28;20436;-82
2021/04/11 04:55:04;;;;;;;1.20;1.10;;;21.70;49.40;;;;;;5087227;28;20438;-83
2021/04/11 04:57:50;;;;;;;2.40;1.67;;;21.70;49.40;;;;;;5087139;28;20873;-82
2021/04/11 05:00:20;;;;;;;1.00;0.90;;;21.80;49.40;;;;;;5087818;28;20400;-83
2021/04/11 05:03:01;;;;;;;1.07;0.97;;;21.70;49.30;;;;;;5086864;28;20428;-83
2021/04/11 05:05:30;;;;;;;1.33;1.10;;;21.70;49.20;;;;;;5087072;28;20463;-82
2021/04/11 05:08:05;;;;;;;1.40;1.00;;;21.80;49.40;;;;;;5087426;28;20551;-82
2021/04/11 05:10:41;;;;;;;1.33;1.23;;;21.80;49.30;;;;;;5088651;28;20413;-82
2021/04/11 05:13:33;;;;;;;1.30;1.10;;;21.80;49.20;;;;;;5088317;28;20396;-82
2021/04/11 05:16:07;;;;;;;1.20;0.93;;;21.80;49.20;;;;;;5070452;28;20408;-82
2021/04/11 05:18:44;;;;;;;1.10;1.00;;;21.80;49.20;;;;;;5069955;28;20495;-83
2021/04/11 05:21:15;;;;;;;1.43;1.13;;;21.80;49.20;;;;;;5070420;28;20412;-83
2021/04/11 05:23:46;;;;;;;1.40;1.10;;;21.90;49.40;;;;;;5088411;28;20887;-82
2021/04/11 05:26:20;;;;;;;1.27;1.13;;;21.90;49.30;;;;;;5088053;28;20449;-82
2021/04/11 05:29:04;;;;;;;1.37;1.23;;;21.90;49.30;;;;;;5088014;28;20419;-83
2021/04/11 05:31:37;;;;;;;1.20;0.97;;;21.80;49.20;;;;;;5088361;28;20446;-83
2021/04/11 05:34:07;;;;;;;1.50;1.20;;;21.90;49.30;;;;;;5088088;28;20400;-83
2021/04/11 05:36:58;;;;;;;1.23;1.10;;;21.90;49.40;;;;;;5070132;28;20479;-83
2021/04/11 05:39:42;;;;;;;2.47;1.10;;;21.80;49.20;;;;;;5059679;28;20859;-83
2021/04/11 05:42:34;;;;;;;1.00;0.90;;;21.90;49.20;;;;;;5087792;28;20527;-82
2021/04/11 05:45:18;;;;;;;1.47;1.10;;;22.20;50.00;;;;;;5069905;28;20430;-82
2021/04/11 05:47:59;;;;;;;1.40;1.30;;;22.00;49.30;;;;;;5085824;28;20389;-82
2021/04/11 05:50:29;;;;;;;1.33;1.13;;;21.90;49.30;;;;;;5085622;28;20424;-81
2021/04/11 05:53:01;;;;;;;1.73;1.13;;;21.90;49.30;;;;;;5085412;28;20439;-82
2021/04/11 05:55:31;;;;;;;1.10;1.00;;;21.90;49.30;;;;;;5085876;28;20494;-81
2021/04/11 05:58:04;;;;;;;1.37;1.27;;;21.90;49.20;;;;;;5067576;28;20491;-83
2021/04/11 06:00:39;;;;;;;1.20;1.10;;;21.90;49.30;;;;;;5068149;28;20501;-83
2021/04/11 06:03:08;;;;;;;1.70;1.10;;;21.90;49.20;;;;;;5086304;28;20432;-82
2021/04/11 06:05:46;;;;;;;1.00;0.83;;;22.00;49.30;;;;;;5067773;28;20528;-83
2021/04/11 06:08:45;;;;;;;1.33;1.10;;;21.80;49.10;;;;;;5067745;28;20491;-83
2021/04/11 06:11:14;;;;;;;1.20;0.97;;;21.90;49.10;;;;;;5069895;28;20416;-83
2021/04/11 06:13:53;;;;;;;1.00;0.90;;;21.90;49.40;;;;;;5085144;28;20415;-82
2021/04/11 06:16:21;;;;;;;1.30;1.03;;;22.00;49.20;;;;;;5085706;28;20420;-83
2021/04/11 06:18:52;;;;;;;1.40;1.20;;;21.90;49.20;;;;;;5085953;28;20442;-83
2021/04/11 06:21:32;;;;;;;2.30;1.10;;;22.00;49.40;;;;;;5070814;28;20423;-83
2021/04/11 06:24:15;;;;;;;1.60;1.17;;;22.00;49.20;;;;;;5090067;28;20443;-82
2021/04/11 06:26:46;;;;;;;1.20;1.00;;;22.00;49.30;;;;;;5071180;28;20622;-84
2021/04/11 06:29:16;;;;;;;1.90;1.27;;;22.00;49.30;;;;;;5089601;28;20393;-82
2021/04/11 06:32:03;;;;;;;1.77;1.10;;;22.00;49.40;;;;;;5088806;28;20419;-82
2021/04/11 06:41:47;;;;;;;2.20;1.20;;;21.90;49.20;;;;;;5026357;28;20394;-81
2021/04/11 06:44:22;;;;;;;1.37;1.07;;;22.00;49.40;;;;;;4976156;28;20438;-82
2021/04/11 06:47:12;;;;;;;2.40;1.60;;;22.00;49.30;;;;;;5026057;28;20509;-81
2021/04/11 06:49:57;;;;;;;3.37;1.10;;;22.00;49.30;;;;;;5026944;28;20406;-81
2021/04/11 06:52:39;;;;;;;2.83;1.40;;;22.10;49.50;;;;;;5027022;28;20446;-81
2021/04/11 06:55:32;;;;;;;1.57;1.10;;;22.10;49.60;;;;;;5009932;28;20502;-81
2021/04/11 06:58:06;;;;;;;2.77;1.50;;;22.10;49.40;;;;;;5010433;28;20419;-81
2021/04/11 07:01:01;;;;;;;1.80;1.40;;;22.10;49.40;;;;;;5026156;28;20402;-81
2021/04/11 07:03:51;;;;;;;1.93;0.97;;;22.10;50.00;;;;;;5026820;28;20474;-81
2021/04/11 07:06:42;;;;;;;2.00;1.40;;;22.10;49.40;;;;;;5010161;28;20531;-82
2021/04/11 07:09:37;;;;;;;3.17;1.37;;;22.10;49.40;;;;;;5081067;28;20408;-82
2021/04/11 07:12:27;;;;;;;2.20;1.30;;;22.10;49.40;;;;;;5088435;28;20464;-82
2021/04/11 07:15:15;;;;;;;1.60;1.10;;;22.10;49.50;;;;;;5091273;28;20472;-82
2021/04/11 07:18:03;;;;;;;3.50;1.57;;;22.10;49.50;;;;;;5090108;28;20393;-82
2021/04/11 07:20:59;;;;;;;1.47;1.30;;;22.10;49.40;;;;;;5090254;28;20400;-82
2021/04/11 07:23:52;;;;;;;2.77;1.20;;;22.10;49.50;;;;;;5091589;28;20468;-82
2021/04/11 07:26:43;;;;;;;1.30;1.07;;;22.10;49.50;;;;;;5070797;28;20448;-81
2021/04/11 07:29:31;;;;;;;1.50;1.00;;;22.10;49.50;;;;;;5078631;28;20420;-82
2021/04/11 07:32:29;;;;;;;1.83;1.37;;;22.10;49.40;;;;;;5090211;28;20408;-83
2021/04/11 07:35:07;;;;;;;1.83;1.20;;;22.10;49.40;;;;;;5090013;28;20743;-82
2021/04/11 07:37:55;;;;;;;1.57;1.00;;;22.10;49.60;;;;;;5091107;28;20385;-82
2021/04/11 07:40:49;;;;;;;1.57;1.37;;;22.10;49.40;;;;;;5091493;28;20412;-85
2021/04/11 07:44:11;;;;;;;2.30;1.30;;;22.10;49.40;;;;;;5070584;28;20771;-84
2021/04/11 07:47:16;;;;;;;4.73;1.63;;;22.10;49.40;;;;;;4971378;28;20501;-84
2021/04/11 07:50:23;;;;;;;2.17;1.10;;;22.10;49.30;;;;;;5034705;28;20409;-82
2021/04/11 07:53:23;;;;;;;1.80;1.40;;;22.10;49.30;;;;;;5088988;28;20462;-82
2021/04/11 07:56:09;;;;;;;2.50;1.30;;;22.10;49.40;;;;;;5089357;28;20389;-82
2021/04/11 07:59:27;;;;;;;1.50;1.20;;;22.10;49.40;;;;;;5089059;28;20412;-82
2021/04/11 08:02:10;;;;;;;1.40;1.30;;;22.10;49.30;;;;;;5084855;28;20440;-83
2021/04/11 08:05:55;;;;;;;2.10;1.70;;;22.10;49.40;;;;;;5090351;28;20420;-83
2021/04/11 08:08:33;;;;;;;2.30;1.40;;;22.20;49.40;;;;;;5078737;28;20428;-83
2021/04/11 08:11:32;;;;;;;2.77;1.43;;;22.10;49.40;;;;;;5089748;28;20412;-83
2021/04/11 08:14:30;;;;;;;2.10;1.60;;;22.20;49.40;;;;;;5072319;28;20448;-83
2021/04/11 08:17:04;;;;;;;2.17;1.40;;;22.10;49.40;;;;;;5089514;28;20393;-82
2021/04/11 08:20:07;;;;;;;1.80;1.10;;;22.10;49.50;;;;;;5089608;28;20392;-82
2021/04/11 08:22:56;;;;;;;2.63;1.40;;;22.20;49.40;;;;;;5089284;28;20377;-83
2021/04/11 08:25:59;;;;;;;2.87;1.40;;;22.10;49.40;;;;;;5089473;28;20440;-82
2021/04/11 08:28:48;;;;;;;2.07;1.40;;;22.10;49.40;;;;;;5071311;28;20436;-82
2021/04/11 08:31:51;;;;;;;1.60;1.30;;;22.20;49.40;;;;;;5088625;28;20401;-82
2021/04/11 08:34:57;;;;;;;3.27;1.20;;;22.10;49.40;;;;;;5070796;28;20535;-83
2021/04/11 08:37:59;;;;;;;1.47;1.27;;;22.00;49.30;;;;;;5070951;28;20432;-82
2021/04/11 08:40:53;;;;;;;2.43;1.53;;;22.10;49.40;;;;;;5070936;28;20439;-82
2021/04/11 08:43:25;;;;;;;1.50;1.20;;;22.20;49.50;;;;;;5086604;28;20455;-82
2021/04/11 08:46:15;;;;;;;2.13;1.60;;;22.10;49.40;;;;;;5071139;28;20515;-83
2021/04/11 08:48:44;;;;;;;3.57;1.60;;;22.20;49.50;;;;;;5087964;28;20472;-83
2021/04/11 08:51:50;;;;;;;2.10;1.53;;;22.20;49.50;;;;;;5070662;28;20424;-83
2021/04/11 08:54:25;;;;;;;2.27;1.57;;;22.20;49.40;;;;;;5070805;28;20424;-83
2021/04/11 08:57:00;;;;;;;2.33;1.63;;;22.20;49.60;;;;;;5087010;28;20408;-83
2021/04/11 08:59:33;;;;;;;3.10;1.50;;;22.20;49.50;;;;;;5070337;28;20443;-83
2021/04/11 09:02:14;;;;;;;2.40;1.33;;;22.20;49.50;;;;;;5070645;28;20435;-83
2021/04/11 09:04:40;;;;;;;3.23;1.40;;;22.20;49.40;;;;;;5088886;28;20393;-83
2021/04/11 09:07:30;;;;;;;2.03;1.57;;;22.20;49.70;;;;;;5087515;28;20456;-83
2021/04/11 09:10:21;;;;;;;2.37;1.47;;;22.20;49.40;;;;;;5070229;28;20162;-81
2021/04/11 09:13:05;;;;;;;2.00;1.80;;;22.20;49.40;;;;;;5071014;28;20444;-83
2021/04/11 09:15:37;;;;;;;1.47;1.23;;;22.20;49.70;;;;;;5087104;28;20420;-82
2021/04/11 09:18:15;;;;;;;2.27;1.57;;;22.20;49.50;;;;;;5070502;28;20407;-82
2021/04/11 09:21:06;;;;;;;2.70;1.40;;;22.20;49.40;;;;;;5087848;28;20408;-84
2021/04/11 09:23:44;;;;;;;1.80;1.40;;;22.20;49.50;;;;;;5069767;28;20936;-83
2021/04/11 09:26:42;;;;;;;1.93;1.30;;;22.20;49.60;;;;;;5086241;28;20456;-83
2021/04/11 09:29:44;;;;;;;4.57;1.80;;;22.20;49.40;;;;;;5088772;28;20381;-83
2021/04/11 09:32:16;;;;;;;3.00;1.47;;;22.20;49.50;;;;;;5087102;28;20483;-83
2021/04/11 09:34:54;;;;;;;2.83;1.43;;;22.20;49.50;;;;;;5087072;28;20435;-83
2021/04/11 09:37:44;;;;;;;3.60;1.20;;;22.20;49.50;;;;;;5087295;28;20753;-83
2021/04/11 09:40:20;;;;;;;2.83;1.80;;;22.20;49.50;;;;;;5086366;28;20770;-83
2021/04/11 09:43:11;;;;;;;1.90;1.47;;;22.20;49.50;;;;;;5086717;28;20408;-83
2021/04/11 09:46:02;;;;;;;1.90;1.50;;;22.20;49.50;;;;;;5087418;28;20436;-84
2021/04/11 09:48:55;;;;;;;2.60;1.60;;;22.20;49.50;;;;;;5086833;28;20534;-84
2021/04/11 09:51:52;;;;;;;2.23;1.40;;;22.20;49.50;;;;;;5069588;28;20432;-83
2021/04/11 09:54:35;;;;;;;2.10;1.60;;;22.20;49.50;;;;;;5088317;28;20416;-83
2021/04/11 09:57:19;;;;;;;4.60;1.80;;;22.20;49.50;;;;;;5073590;28;20499;-83
2021/04/11 09:59:59;;;;;;;3.73;1.50;;;22.20;49.60;;;;;;5072965;28;20503;-84
2021/04/11 10:02:39;;;;;;;2.53;1.77;;;22.20;49.60;;;;;;5090387;28;20527;-83
2021/04/11 10:05:30;;;;;;;2.93;2.23;;;22.30;49.60;;;;;;5090385;28;20413;-84
2021/04/11 10:08:33;;;;;;;1.97;1.50;;;22.20;49.50;;;;;;5091580;28;20404;-84
2021/04/11 10:11:26;;;;;;;2.50;1.47;;;22.10;49.40;;;;;;5072795;28;20416;-82
2021/04/11 10:14:10;;;;;;;2.10;1.47;;;22.20;49.60;;;;;;5091154;28;20381;-82
2021/04/11 10:17:08;;;;;;;1.70;1.50;;;22.20;49.60;;;;;;5073278;28;20408;-82
2021/04/11 10:19:58;;;;;;;3.20;1.70;;;22.20;49.60;;;;;;5035330;28;20443;-84
2021/04/11 10:22:35;;;;;;;3.40;2.03;;;22.30;49.80;;;;;;5089861;28;20408;-84
2021/04/11 10:25:15;;;;;;;2.60;1.37;;;22.20;49.60;;;;;;5072611;28;20484;-84
2021/04/11 10:27:54;;;;;;;2.43;1.87;;;22.20;49.60;;;;;;5073443;28;20435;-83
2021/04/11 10:30:21;;;;;;;2.43;1.60;;;22.20;49.60;;;;;;5089118;28;20455;-83
2021/04/11 10:33:30;;;;;;;2.47;1.50;;;22.20;49.60;;;;;;5090876;28;20412;-83
2021/04/11 10:36:05;;;;;;;2.73;1.60;;;22.20;49.50;;;;;;5072882;28;20440;-83
2021/04/11 10:38:50;;;;;;;4.10;2.30;;;22.20;49.60;;;;;;5090494;28;20393;-83
2021/04/11 10:41:35;;;;;;;2.33;1.50;;;22.20;49.60;;;;;;5072275;28;20444;-83
2021/04/11 10:44:20;;;;;;;1.80;1.50;;;22.20;49.60;;;;;;5072496;28;20420;-83
2021/04/11 10:47:23;;;;;;;2.20;1.53;;;22.40;49.90;;;;;;5089067;28;20463;-83
2021/04/11 10:50:14;;;;;;;2.37;1.50;;;22.20;49.60;;;;;;5070857;28;20415;-85
2021/04/11 10:53:03;;;;;;;1.80;1.63;;;22.20;49.60;;;;;;5087252;28;20415;-86
2021/04/11 10:56:01;;;;;;;1.80;1.37;;;22.40;49.90;;;;;;5007623;28;20448;-85
2021/04/11 10:58:47;;;;;;;2.90;1.63;;;22.20;49.60;;;;;;5006255;28;20439;-85
2021/04/11 11:01:27;;;;;;;4.30;1.87;;;22.20;49.60;;;;;;5007737;28;20512;-85
2021/04/11 11:04:11;;;;;;;4.70;1.70;;;22.20;49.90;;;;;;4990515;28;20455;-85
2021/04/11 11:07:11;;;;;;;2.03;1.43;;;22.20;50.00;;;;;;4990479;28;20563;-86
2021/04/11 11:10:01;;;;;;;2.27;1.43;;;22.20;49.60;;;;;;4990608;28;20467;-85
2021/04/11 11:12:43;;;;;;;2.70;1.80;;;22.20;49.60;;;;;;5006885;28;20965;-85
2021/04/11 11:15:53;;;;;;;2.10;1.43;;;22.20;49.60;;;;;;4991742;28;20415;-85
2021/04/11 11:18:46;;;;;;;2.83;1.80;;;22.20;49.60;;;;;;4955147;28;20408;-85
2021/04/11 11:21:37;;;;;;;2.23;1.60;;;22.20;49.60;;;;;;5007246;28;20400;-85
2021/04/11 11:24:32;;;;;;;4.00;1.87;;;22.20;49.60;;;;;;5007052;28;20503;-85
2021/04/11 11:27:35;;;;;;;2.13;1.27;;;22.20;49.60;;;;;;5006977;28;20463;-85
2021/04/11 11:30:09;;;;;;;3.00;1.40;;;22.30;49.70;;;;;;5006606;28;20416;-85
2021/04/11 11:33:03;;;;;;;2.83;1.40;;;22.20;49.60;;;;;;5032900;28;20440;-85
2021/04/11 11:35:30;;;;;;;2.83;1.67;;;22.20;49.60;;;;;;5087121;28;20453;-85
2021/04/11 11:38:15;;;;;;;3.50;1.50;;;22.20;49.60;;;;;;5069983;28;20421;-85
2021/04/11 11:41:16;;;;;;;1.60;1.43;;;22.20;49.60;;;;;;5071549;28;20412;-85
2021/04/11 11:44:00;;;;;;;2.70;1.80;;;22.30;49.70;;;;;;5070568;28;20424;-85
2021/04/11 11:47:05;;;;;;;3.33;1.47;;;22.20;49.60;;;;;;5088465;28;20470;-85
2021/04/11 11:49:59;;;;;;;2.30;1.40;;;22.20;49.60;;;;;;5069998;28;20413;-85
2021/04/11 11:52:39;;;;;;;1.83;1.50;;;22.20;49.60;;;;;;5070428;28;20405;-85
2021/04/11 11:55:28;;;;;;;1.90;1.20;;;22.20;49.60;;;;;;5088246;28;20393;-85
2021/04/11 11:58:17;;;;;;;2.03;1.63;;;22.20;49.60;;;;;;5070750;28;20415;-85
2021/04/11 12:00:59;;;;;;;1.90;1.70;;;22.20;49.60;;;;;;5069448;28;20405;-85
2021/04/11 12:03:34;;;;;;;4.87;1.47;;;22.20;49.60;;;;;;5087728;28;20425;-85
2021/04/11 12:06:32;;;;;;;1.93;1.20;;;22.20;50.30;;;;;;5070766;28;20455;-85
2021/04/11 12:09:20;;;;;;;2.33;1.30;;;22.20;49.60;;;;;;5050040;28;20891;-85
2021/04/11 12:12:16;;;;;;;1.50;1.40;;;22.20;49.70;;;;;;5070048;28;20409;-85
2021/04/11 12:15:11;;;;;;;1.97;1.67;;;22.20;49.60;;;;;;5087674;28;20396;-85
2021/04/11 12:18:07;;;;;;;2.80;1.43;;;22.20;49.60;;;;;;5068288;28;20404;-84
2021/04/11 12:20:49;;;;;;;2.43;1.47;;;22.20;49.60;;;;;;5064550;28;20465;-85
2021/04/11 12:23:49;;;;;;;1.60;1.50;;;22.30;49.80;;;;;;5068369;28;20443;-85
2021/04/11 12:26:50;;;;;;;2.50;1.40;;;22.20;49.70;;;;;;4970333;28;20469;-85
2021/04/11 12:29:24;;;;;;;2.73;1.57;;;22.20;49.70;;;;;;4968161;28;20426;-83
2021/04/11 12:32:08;;;;;;;1.40;1.13;;;22.20;49.80;;;;;;4985454;28;20424;-83
2021/04/11 12:34:48;;;;;;;2.23;1.30;;;22.20;49.70;;;;;;4987885;28;20401;-83
2021/04/11 12:37:27;;;;;;;1.40;1.13;;;22.10;49.60;;;;;;4987843;28;20476;-83
2021/04/11 12:40:05;;;;;;;8.23;1.83;;;22.20;49.70;;;;;;4987576;28;20480;-83
2021/04/11 12:42:48;;;;;;;1.97;1.33;;;22.20;50.00;;;;;;4988346;28;20409;-83
2021/04/11 12:45:46;;;;;;;2.83;1.60;;;22.20;49.70;;;;;;4987710;28;20393;-83
2021/04/11 12:48:28;;;;;;;2.00;1.40;;;22.20;49.70;;;;;;4971063;28;20401;-83
2021/04/11 12:50:59;;;;;;;2.07;1.40;;;22.10;49.80;;;;;;4987370;28;20477;-83
2021/04/11 12:53:37;;;;;;;1.97;1.40;;;22.30;50.10;;;;;;4987255;28;20427;-83
2021/04/11 12:56:10;;;;;;;1.80;1.33;;;22.10;49.90;;;;;;4986756;28;20417;-84
2021/04/11 12:58:40;;;;;;;2.00;1.70;;;22.10;49.80;;;;;;4970666;28;20506;-84
2021/04/11 13:01:11;;;;;;;2.23;1.13;;;22.10;49.70;;;;;;4986139;28;20425;-84
2021/04/11 13:03:52;;;;;;;2.00;1.50;;;22.10;49.90;;;;;;5039793;28;20440;-84
2021/04/11 13:06:39;;;;;;;3.30;1.30;;;22.10;49.70;;;;;;5069648;28;20474;-84
2021/04/11 13:09:36;;;;;;;1.97;1.40;;;22.10;49.70;;;;;;5070565;28;20413;-83
2021/04/11 13:12:02;;;;;;;1.80;1.30;;;22.10;49.70;;;;;;5069872;28;20993;-84
2021/04/11 13:14:55;;;;;;;2.33;2.03;;;22.10;50.00;;;;;;5069821;28;20425;-83
2021/04/11 13:17:40;;;;;;;1.40;1.17;;;22.10;49.70;;;;;;5087416;28;20158;-83
2021/04/11 13:20:27;;;;;;;2.13;1.93;;;22.20;49.90;;;;;;5069654;28;20444;-83
2021/04/11 13:26:05;;;;;;;1.50;1.10;;;22.10;49.80;;;;;;5086999;28;20530;-83
2021/04/11 13:28:42;;;;;;;2.00;1.50;;;22.10;49.90;;;;;;5072621;28;20488;-83
2021/04/11 13:31:15;;;;;;;2.93;1.43;;;22.10;49.90;;;;;;5073859;28;20416;-83
2021/04/11 13:33:50;;;;;;;1.83;1.30;;;22.10;49.90;;;;;;5073197;28;20424;-83
2021/04/11 13:36:41;;;;;;;1.10;1.00;;;22.10;49.80;;;;;;5091356;28;20396;-83
2021/04/11 13:39:13;;;;;;;2.00;1.20;;;22.10;49.80;;;;;;5073091;28;20932;-83
2021/04/11 13:41:51;;;;;;;2.10;1.47;;;22.10;49.90;;;;;;5073616;28;20427;-83
2021/04/11 13:44:28;;;;;;;1.30;1.10;;;22.10;49.80;;;;;;5091558;28;20464;-83
2021/04/11 13:47:15;;;;;;;1.87;1.47;;;22.10;49.80;;;;;;5074062;28;20490;-83
2021/04/11 13:49:53;;;;;;;1.40;1.10;;;22.10;49.80;;;;;;5091317;28;20381;-83
2021/04/11 13:52:36;;;;;;;1.40;1.30;;;22.10;50.10;;;;;;5091718;28;20392;-83
2021/04/11 13:55:30;;;;;;;1.33;1.23;;;22.10;49.80;;;;;;5073893;28;20597;-83
2021/04/11 13:58:17;;;;;;;1.30;1.00;;;22.10;49.80;;;;;;5074186;28;20417;-83
2021/04/11 14:01:09;;;;;;;1.27;1.17;;;22.10;50.50;;;;;;5091272;28;20423;-83
2021/04/11 14:03:41;;;;;;;2.37;1.33;;;22.00;49.70;;;;;;5073712;28;20443;-83
2021/04/11 14:06:37;;;;;;;1.80;1.30;;;22.10;50.10;;;;;;5072962;28;20471;-83
2021/04/11 14:09:24;;;;;;;2.03;1.30;;;22.10;49.80;;;;;;5064590;28;20412;-84
2021/04/11 14:12:08;;;;;;;2.27;1.50;;;22.10;50.10;;;;;;5090535;28;20491;-84
2021/04/11 14:14:47;;;;;;;1.50;1.30;;;22.10;49.90;;;;;;5090342;28;20396;-84
2021/04/11 14:17:31;;;;;;;1.30;1.10;;;22.10;49.90;;;;;;5072558;28;20507;-84